createdAt,value
2019-01-10T00:04:42.618Z,8
2019-01-10T00:14:50.445Z,6
2019-01-10T00:24:58.270Z,7
2019-01-10T00:35:06.181Z,6
2019-01-10T00:43:23.404Z,7
2019-01-10T00:53:30.331Z,7
2019-01-10T01:03:38.848Z,6
2019-01-10T01:13:44.993Z,5
2019-01-10T01:23:52.523Z,6
2019-01-10T01:34:00.184Z,7
2019-01-10T01:44:08.702Z,7
2019-01-10T01:54:14.609Z,7
2019-01-10T02:04:21.796Z,6
2019-01-10T02:14:29.139Z,4
2019-01-10T02:24:38.234Z,5
2019-01-10T02:34:45.019Z,6
2019-01-10T02:44:04.349Z,6
2019-01-10T02:54:11.025Z,6
2019-01-10T03:04:18.566Z,5
2019-01-10T03:14:26.290Z,6
2019-01-10T03:24:34.739Z,7
2019-01-10T03:34:40.340Z,5
2019-01-10T03:44:48.900Z,6
2019-01-10T03:54:55.962Z,5
2019-01-10T04:05:03.858Z,7
2019-01-10T04:15:11.449Z,5
2019-01-10T04:25:17.970Z,7
2019-01-10T04:35:26.756Z,6
2019-01-10T04:44:46.071Z,6
2019-01-10T04:54:56.751Z,4
2019-01-10T05:05:03.069Z,6
2019-01-10T05:15:07.628Z,5
2019-01-10T05:25:15.717Z,5
2019-01-10T05:35:21.748Z,4
2019-01-10T05:45:28.521Z,4
2019-01-10T05:55:35.713Z,8
2019-01-10T06:05:43.946Z,4
2019-01-10T06:15:49.629Z,4
2019-01-10T06:20:03.640Z,4
2019-01-10T06:30:10.809Z,6
2019-01-10T06:40:18.178Z,6
2019-01-10T06:50:24.973Z,5
2019-01-10T07:00:33.862Z,4
2019-01-10T07:10:41.317Z,6
2019-01-10T07:20:53.188Z,6
2019-01-10T07:31:11.647Z,4
2019-01-10T07:41:18.644Z,4
2019-01-10T07:51:25.804Z,5
2019-01-10T08:01:35.162Z,5
2019-01-10T08:11:43.050Z,4
2019-01-10T08:21:52.999Z,5
2019-01-10T08:23:06.591Z,4
2019-01-10T08:26:39.030Z,5
2019-01-10T08:36:41.191Z,5
2019-01-10T08:46:01.011Z,6
2019-01-10T08:56:11.009Z,4
2019-01-10T09:06:17.918Z,5
2019-01-10T09:16:26.301Z,5
2019-01-10T09:21:42.675Z,6
2019-01-10T09:31:51.576Z,4
2019-01-10T09:35:05.420Z,6
2019-01-10T09:45:12.675Z,4
2019-01-10T09:55:22.548Z,4
2019-01-10T10:05:33.338Z,4
2019-01-10T10:06:43.495Z,28
2019-01-10T10:16:52.228Z,4
2019-01-10T10:27:01.948Z,5
2019-01-10T10:37:10.225Z,7
2019-01-10T10:47:16.198Z,5
2019-01-10T10:57:23.139Z,6
2019-01-10T11:07:31.779Z,4
2019-01-10T11:09:44.420Z,4
2019-01-10T11:19:52.625Z,5
2019-01-10T11:30:00.663Z,5
2019-01-10T11:40:08.447Z,5
2019-01-10T11:50:16.995Z,5
2019-01-10T12:00:23.093Z,7
2019-01-10T12:02:38.667Z,6
2019-01-10T12:03:51.538Z,4
2019-01-10T12:14:08.389Z,6
2019-01-10T12:24:16.205Z,7
2019-01-10T12:34:22.719Z,7
2019-01-10T12:37:36.137Z,6
2019-01-10T12:47:43.960Z,5
2019-01-10T12:57:53.582Z,6
2019-01-10T13:08:04.586Z,6
2019-01-10T13:17:20.880Z,11
2019-01-10T13:27:37.299Z,7
2019-01-10T13:34:59.063Z,8
2019-01-10T13:45:01.018Z,8
2019-01-10T13:55:07.515Z,9
2019-01-10T14:05:15.117Z,7
2019-01-10T14:15:23.439Z,9
2019-01-10T14:17:38.177Z,10
2019-01-10T14:27:47.034Z,10
2019-01-10T14:37:54.597Z,10
2019-01-10T14:47:13.397Z,12
2019-01-10T14:56:35.860Z,12
2019-01-10T14:59:50.363Z,10
2019-01-10T15:09:53.370Z,10
2019-01-10T15:20:02.227Z,11
2019-01-10T15:30:09.028Z,10
2019-01-10T15:40:14.712Z,23
2019-01-10T15:47:35.163Z,12
2019-01-10T15:55:09.650Z,15
2019-01-10T15:56:30.341Z,16
2019-01-10T15:57:40.909Z,15
2019-01-10T16:07:48.069Z,13
2019-01-10T16:17:59.295Z,11
2019-01-10T16:28:08.851Z,11
2019-01-10T16:38:15.563Z,13
2019-01-10T16:48:22.270Z,13
2019-01-10T16:58:29.968Z,13
2019-01-10T17:08:37.821Z,18
2019-01-10T17:18:45.358Z,14
2019-01-10T17:28:50.967Z,15
2019-01-10T17:39:00.282Z,14
2019-01-10T17:49:08.021Z,14
2019-01-10T17:59:14.937Z,16
2019-01-10T18:09:24.904Z,16
2019-01-10T18:14:40.829Z,22
2019-01-10T18:24:49.963Z,17
2019-01-10T18:34:58.792Z,16
2019-01-10T18:36:11.354Z,15
2019-01-10T18:46:18.455Z,15
2019-01-10T18:55:37.898Z,15
2019-01-10T19:05:46.675Z,16
2019-01-10T19:15:55.389Z,16
2019-01-10T19:26:05.492Z,16
2019-01-10T19:36:14.450Z,14
2019-01-10T19:46:22.446Z,11
2019-01-10T19:50:42.198Z,12
2019-01-10T20:01:03.249Z,12
2019-01-10T20:11:05.807Z,13
2019-01-10T20:21:12.150Z,14
2019-01-10T20:31:20.795Z,12
2019-01-10T20:41:28.765Z,14
2019-01-10T20:42:41.924Z,11
2019-01-10T20:52:49.127Z,11
2019-01-10T21:02:56.879Z,13
2019-01-10T21:13:04.407Z,12
2019-01-10T21:23:11.571Z,11
2019-01-10T21:33:19.972Z,13
2019-01-10T21:43:29.411Z,13
2019-01-10T21:53:36.149Z,19
2019-01-10T22:03:45.564Z,34
2019-01-10T22:13:54.812Z,29
2019-01-10T22:24:02.073Z,35
2019-01-10T22:34:08.993Z,17
2019-01-10T22:44:16.618Z,34
2019-01-10T22:54:25.533Z,33
2019-01-10T23:04:32.841Z,30
2019-01-10T23:14:39.923Z,25
2019-01-10T23:24:48.271Z,22
2019-01-10T23:34:54.335Z,22
2019-01-10T23:45:01.160Z,18
2019-01-10T23:55:08.551Z,32
